sensor_id;sensor_type;location;lat;lon;timestamp;P1;durP1;ratioP1;P2;durP2;ratioP2
28459;SDS011;32528;45.712;9.192;2023-02-11T00:00:24;51.67;;;27.40;;
28459;SDS011;32528;45.712;9.192;2023-02-11T00:02:24;53.10;;;27.85;;
28459;SDS011;32528;45.712;9.192;2023-02-11T00:04:29;59.95;;;26.80;;
28459;SDS011;32528;45.712;9.192;2023-02-11T00:06:30;42.40;;;22.88;;
28459;SDS011;32528;45.712;9.192;2023-02-11T00:08:32;45.70;;;23.75;;
28459;SDS011;32528;45.712;9.192;2023-02-11T00:10:33;44.85;;;23.10;;
28459;SDS011;32528;45.712;9.192;2023-02-11T00:12:34;40.10;;;22.75;;
28459;SDS011;32528;45.712;9.192;2023-02-11T00:14:36;43.25;;;21.70;;
28459;SDS011;32528;45.712;9.192;2023-02-11T00:16:38;55.58;;;27.17;;
28459;SDS011;32528;45.712;9.192;2023-02-11T00:18:38;54.35;;;29.40;;
28459;SDS011;32528;45.712;9.192;2023-02-11T00:20:39;47.72;;;25.70;;
28459;SDS011;32528;45.712;9.192;2023-02-11T00:22:41;45.45;;;21.55;;
28459;SDS011;32528;45.712;9.192;2023-02-11T00:24:42;57.28;;;25.35;;
28459;SDS011;32528;45.712;9.192;2023-02-11T00:26:42;49.42;;;26.38;;
28459;SDS011;32528;45.712;9.192;2023-02-11T00:28:44;68.30;;;29.23;;
28459;SDS011;32528;45.712;9.192;2023-02-11T00:30:52;60.25;;;29.23;;
28459;SDS011;32528;45.712;9.192;2023-02-11T00:32:54;42.40;;;21.20;;
28459;SDS011;32528;45.712;9.192;2023-02-11T00:34:55;46.03;;;22.88;;
28459;SDS011;32528;45.712;9.192;2023-02-11T00:36:55;44.45;;;22.75;;
28459;SDS011;32528;45.712;9.192;2023-02-11T00:38:56;42.88;;;22.20;;
28459;SDS011;32528;45.712;9.192;2023-02-11T00:40:58;49.53;;;25.02;;
28459;SDS011;32528;45.712;9.192;2023-02-11T00:42:59;52.97;;;25.17;;
28459;SDS011;32528;45.712;9.192;2023-02-11T00:45:01;52.95;;;26.63;;
28459;SDS011;32528;45.712;9.192;2023-02-11T00:47:02;48.17;;;23.45;;
28459;SDS011;32528;45.712;9.192;2023-02-11T00:49:03;40.80;;;21.50;;
28459;SDS011;32528;45.712;9.192;2023-02-11T00:51:04;93.15;;;49.13;;
28459;SDS011;32528;45.712;9.192;2023-02-11T00:53:05;71.00;;;38.83;;
28459;SDS011;32528;45.712;9.192;2023-02-11T00:55:08;61.65;;;26.00;;
28459;SDS011;32528;45.712;9.192;2023-02-11T00:57:08;55.50;;;32.35;;
28459;SDS011;32528;45.712;9.192;2023-02-11T00:59:10;57.83;;;28.17;;
28459;SDS011;32528;45.712;9.192;2023-02-11T01:01:11;49.92;;;23.15;;
28459;SDS011;32528;45.712;9.192;2023-02-11T01:03:12;45.30;;;26.83;;
28459;SDS011;32528;45.712;9.192;2023-02-11T01:05:13;63.95;;;33.03;;
28459;SDS011;32528;45.712;9.192;2023-02-11T01:07:14;50.75;;;23.60;;
28459;SDS011;32528;45.712;9.192;2023-02-11T01:09:16;44.60;;;23.13;;
28459;SDS011;32528;45.712;9.192;2023-02-11T01:11:18;48.85;;;20.83;;
28459;SDS011;32528;45.712;9.192;2023-02-11T01:13:20;34.05;;;17.42;;
28459;SDS011;32528;45.712;9.192;2023-02-11T01:15:22;43.42;;;21.20;;
28459;SDS011;32528;45.712;9.192;2023-02-11T01:17:23;35.88;;;21.13;;
28459;SDS011;32528;45.712;9.192;2023-02-11T01:19:24;37.15;;;20.25;;
28459;SDS011;32528;45.712;9.192;2023-02-11T01:21:25;48.63;;;19.13;;
28459;SDS011;32528;45.712;9.192;2023-02-11T01:23:26;34.78;;;21.20;;
28459;SDS011;32528;45.712;9.192;2023-02-11T01:25:27;37.20;;;20.40;;
28459;SDS011;32528;45.712;9.192;2023-02-11T01:27:28;39.10;;;20.23;;
28459;SDS011;32528;45.712;9.192;2023-02-11T01:29:30;40.08;;;20.30;;
28459;SDS011;32528;45.712;9.192;2023-02-11T01:31:31;41.60;;;21.52;;
28459;SDS011;32528;45.712;9.192;2023-02-11T01:33:34;40.72;;;19.23;;
28459;SDS011;32528;45.712;9.192;2023-02-11T01:35:34;36.53;;;20.17;;
28459;SDS011;32528;45.712;9.192;2023-02-11T01:37:39;39.70;;;19.98;;
28459;SDS011;32528;45.712;9.192;2023-02-11T01:39:39;41.63;;;21.27;;
28459;SDS011;32528;45.712;9.192;2023-02-11T01:41:41;35.13;;;20.85;;
28459;SDS011;32528;45.712;9.192;2023-02-11T01:43:43;31.90;;;20.08;;
28459;SDS011;32528;45.712;9.192;2023-02-11T01:47:46;39.70;;;21.38;;
28459;SDS011;32528;45.712;9.192;2023-02-11T01:49:49;56.53;;;21.02;;
28459;SDS011;32528;45.712;9.192;2023-02-11T01:52:01;52.33;;;19.83;;
28459;SDS011;32528;45.712;9.192;2023-02-11T01:54:10;42.88;;;21.50;;
28459;SDS011;32528;45.712;9.192;2023-02-11T01:56:34;35.40;;;17.38;;
28459;SDS011;32528;45.712;9.192;2023-02-11T01:58:58;32.10;;;16.83;;
28459;SDS011;32528;45.712;9.192;2023-02-11T02:01:04;51.58;;;18.20;;
28459;SDS011;32528;45.712;9.192;2023-02-11T02:07:24;35.42;;;18.02;;
28459;SDS011;32528;45.712;9.192;2023-02-11T02:10:01;30.95;;;16.33;;
28459;SDS011;32528;45.712;9.192;2023-02-11T02:12:09;36.53;;;18.65;;
28459;SDS011;32528;45.712;9.192;2023-02-11T02:14:10;42.13;;;18.08;;
28459;SDS011;32528;45.712;9.192;2023-02-11T02:16:11;40.70;;;19.38;;
28459;SDS011;32528;45.712;9.192;2023-02-11T02:23:25;38.33;;;18.63;;
28459;SDS011;32528;45.712;9.192;2023-02-11T02:28:01;33.58;;;17.30;;
28459;SDS011;32528;45.712;9.192;2023-02-11T02:35:33;33.35;;;17.73;;
28459;SDS011;32528;45.712;9.192;2023-02-11T02:37:50;37.95;;;17.90;;
28459;SDS011;32528;45.712;9.192;2023-02-11T02:39:59;33.35;;;17.55;;
28459;SDS011;32528;45.712;9.192;2023-02-11T02:42:03;42.38;;;17.25;;
28459;SDS011;32528;45.712;9.192;2023-02-11T02:44:05;34.20;;;17.70;;
28459;SDS011;32528;45.712;9.192;2023-02-11T02:46:21;38.00;;;17.77;;
28459;SDS011;32528;45.712;9.192;2023-02-11T02:48:31;29.60;;;15.93;;
28459;SDS011;32528;45.712;9.192;2023-02-11T02:50:33;32.42;;;17.52;;
28459;SDS011;32528;45.712;9.192;2023-02-11T02:52:41;36.65;;;17.23;;
28459;SDS011;32528;45.712;9.192;2023-02-11T03:04:20;30.42;;;14.75;;
28459;SDS011;32528;45.712;9.192;2023-02-11T03:11:01;32.58;;;16.00;;
28459;SDS011;32528;45.712;9.192;2023-02-11T03:13:05;39.65;;;18.15;;
28459;SDS011;32528;45.712;9.192;2023-02-11T03:15:07;37.60;;;17.02;;
28459;SDS011;32528;45.712;9.192;2023-02-11T03:17:09;28.08;;;15.43;;
28459;SDS011;32528;45.712;9.192;2023-02-11T03:21:21;30.45;;;16.67;;
28459;SDS011;32528;45.712;9.192;2023-02-11T03:23:59;33.85;;;16.27;;
28459;SDS011;32528;45.712;9.192;2023-02-11T03:25:57;27.73;;;15.80;;
28459;SDS011;32528;45.712;9.192;2023-02-11T03:28:08;29.98;;;14.55;;
28459;SDS011;32528;45.712;9.192;2023-02-11T03:30:33;38.78;;;16.92;;
28459;SDS011;32528;45.712;9.192;2023-02-11T03:32:40;29.45;;;16.55;;
28459;SDS011;32528;45.712;9.192;2023-02-11T03:39:24;36.28;;;16.60;;
28459;SDS011;32528;45.712;9.192;2023-02-11T03:41:30;34.67;;;15.18;;
28459;SDS011;32528;45.712;9.192;2023-02-11T03:43:34;24.80;;;14.00;;
28459;SDS011;32528;45.712;9.192;2023-02-11T03:45:40;28.77;;;14.55;;
28459;SDS011;32528;45.712;9.192;2023-02-11T03:47:42;31.52;;;14.35;;
28459;SDS011;32528;45.712;9.192;2023-02-11T03:49:48;33.58;;;15.40;;
28459;SDS011;32528;45.712;9.192;2023-02-11T03:51:52;34.22;;;13.85;;
28459;SDS011;32528;45.712;9.192;2023-02-11T03:53:54;40.20;;;17.95;;
28459;SDS011;32528;45.712;9.192;2023-02-11T03:55:59;38.45;;;19.35;;
28459;SDS011;32528;45.712;9.192;2023-02-11T03:58:04;27.50;;;15.15;;
28459;SDS011;32528;45.712;9.192;2023-02-11T04:00:05;37.72;;;16.65;;
28459;SDS011;32528;45.712;9.192;2023-02-11T04:02:11;27.98;;;15.57;;
28459;SDS011;32528;45.712;9.192;2023-02-11T04:04:12;32.70;;;16.20;;
28459;SDS011;32528;45.712;9.192;2023-02-11T04:06:13;30.17;;;16.98;;
28459;SDS011;32528;45.712;9.192;2023-02-11T04:08:14;29.42;;;16.33;;
28459;SDS011;32528;45.712;9.192;2023-02-11T04:10:15;32.05;;;17.40;;
28459;SDS011;32528;45.712;9.192;2023-02-11T04:12:16;31.40;;;13.98;;
28459;SDS011;32528;45.712;9.192;2023-02-11T04:14:17;32.67;;;14.68;;
28459;SDS011;32528;45.712;9.192;2023-02-11T04:16:18;30.90;;;16.67;;
28459;SDS011;32528;45.712;9.192;2023-02-11T04:18:19;35.70;;;17.02;;
28459;SDS011;32528;45.712;9.192;2023-02-11T04:20:20;32.03;;;14.88;;
28459;SDS011;32528;45.712;9.192;2023-02-11T04:22:21;29.85;;;14.25;;
28459;SDS011;32528;45.712;9.192;2023-02-11T04:24:22;42.90;;;15.73;;
28459;SDS011;32528;45.712;9.192;2023-02-11T04:26:23;31.40;;;15.88;;
28459;SDS011;32528;45.712;9.192;2023-02-11T04:28:23;34.70;;;15.13;;
28459;SDS011;32528;45.712;9.192;2023-02-11T04:30:25;31.50;;;16.63;;
28459;SDS011;32528;45.712;9.192;2023-02-11T04:32:26;28.95;;;14.43;;
28459;SDS011;32528;45.712;9.192;2023-02-11T04:34:28;22.85;;;12.20;;
28459;SDS011;32528;45.712;9.192;2023-02-11T04:36:28;31.60;;;16.73;;
28459;SDS011;32528;45.712;9.192;2023-02-11T04:38:30;34.63;;;18.45;;
28459;SDS011;32528;45.712;9.192;2023-02-11T04:40:30;29.73;;;15.00;;
28459;SDS011;32528;45.712;9.192;2023-02-11T04:42:31;27.33;;;15.23;;
28459;SDS011;32528;45.712;9.192;2023-02-11T04:44:32;25.50;;;15.25;;
28459;SDS011;32528;45.712;9.192;2023-02-11T04:46:33;24.52;;;13.75;;
28459;SDS011;32528;45.712;9.192;2023-02-11T04:48:34;27.25;;;16.02;;
28459;SDS011;32528;45.712;9.192;2023-02-11T04:50:35;33.97;;;15.20;;
28459;SDS011;32528;45.712;9.192;2023-02-11T04:52:35;32.60;;;14.93;;
28459;SDS011;32528;45.712;9.192;2023-02-11T04:54:36;34.90;;;15.98;;
28459;SDS011;32528;45.712;9.192;2023-02-11T04:56:37;29.33;;;14.68;;
28459;SDS011;32528;45.712;9.192;2023-02-11T04:58:38;30.20;;;14.85;;
28459;SDS011;32528;45.712;9.192;2023-02-11T05:00:39;32.72;;;15.98;;
28459;SDS011;32528;45.712;9.192;2023-02-11T05:02:40;27.40;;;15.90;;
28459;SDS011;32528;45.712;9.192;2023-02-11T05:04:40;42.05;;;15.02;;
28459;SDS011;32528;45.712;9.192;2023-02-11T05:06:41;27.08;;;13.60;;
28459;SDS011;32528;45.712;9.192;2023-02-11T05:08:42;31.23;;;15.13;;
28459;SDS011;32528;45.712;9.192;2023-02-11T05:10:45;31.33;;;15.00;;
28459;SDS011;32528;45.712;9.192;2023-02-11T05:12:47;31.13;;;15.98;;
28459;SDS011;32528;45.712;9.192;2023-02-11T05:14:48;28.98;;;13.70;;
28459;SDS011;32528;45.712;9.192;2023-02-11T05:16:49;23.67;;;14.10;;
28459;SDS011;32528;45.712;9.192;2023-02-11T05:18:49;29.98;;;13.05;;
28459;SDS011;32528;45.712;9.192;2023-02-11T05:20:50;31.83;;;14.65;;
28459;SDS011;32528;45.712;9.192;2023-02-11T05:22:51;26.67;;;14.85;;
28459;SDS011;32528;45.712;9.192;2023-02-11T05:24:52;29.85;;;14.95;;
28459;SDS011;32528;45.712;9.192;2023-02-11T05:26:52;30.25;;;13.85;;
28459;SDS011;32528;45.712;9.192;2023-02-11T05:28:53;31.70;;;16.15;;
28459;SDS011;32528;45.712;9.192;2023-02-11T05:30:54;25.30;;;13.95;;
28459;SDS011;32528;45.712;9.192;2023-02-11T05:32:55;34.75;;;15.60;;
28459;SDS011;32528;45.712;9.192;2023-02-11T05:34:56;28.80;;;14.55;;
28459;SDS011;32528;45.712;9.192;2023-02-11T05:36:57;26.88;;;13.20;;
28459;SDS011;32528;45.712;9.192;2023-02-11T05:38:57;28.90;;;15.15;;
28459;SDS011;32528;45.712;9.192;2023-02-11T05:40:58;25.27;;;14.30;;
28459;SDS011;32528;45.712;9.192;2023-02-11T05:42:59;21.38;;;12.25;;
28459;SDS011;32528;45.712;9.192;2023-02-11T05:45:00;28.85;;;15.55;;
28459;SDS011;32528;45.712;9.192;2023-02-11T05:47:01;30.33;;;15.15;;
28459;SDS011;32528;45.712;9.192;2023-02-11T05:49:02;24.27;;;13.05;;
28459;SDS011;32528;45.712;9.192;2023-02-11T05:51:03;26.75;;;12.85;;
28459;SDS011;32528;45.712;9.192;2023-02-11T05:53:04;27.50;;;14.00;;
28459;SDS011;32528;45.712;9.192;2023-02-11T05:55:05;25.42;;;15.15;;
28459;SDS011;32528;45.712;9.192;2023-02-11T05:57:06;27.42;;;14.30;;
28459;SDS011;32528;45.712;9.192;2023-02-11T05:59:07;25.60;;;15.02;;
28459;SDS011;32528;45.712;9.192;2023-02-11T06:01:08;24.80;;;13.45;;
28459;SDS011;32528;45.712;9.192;2023-02-11T06:03:09;27.55;;;14.20;;
28459;SDS011;32528;45.712;9.192;2023-02-11T06:05:09;25.17;;;13.70;;
28459;SDS011;32528;45.712;9.192;2023-02-11T06:07:10;26.27;;;12.30;;
28459;SDS011;32528;45.712;9.192;2023-02-11T06:09:11;28.42;;;14.20;;
28459;SDS011;32528;45.712;9.192;2023-02-11T06:11:15;35.22;;;15.25;;
28459;SDS011;32528;45.712;9.192;2023-02-11T06:13:17;24.08;;;12.35;;
28459;SDS011;32528;45.712;9.192;2023-02-11T06:15:18;31.45;;;13.43;;
28459;SDS011;32528;45.712;9.192;2023-02-11T06:17:19;23.83;;;14.05;;
28459;SDS011;32528;45.712;9.192;2023-02-11T06:19:20;30.95;;;12.73;;
28459;SDS011;32528;45.712;9.192;2023-02-11T06:21:21;24.95;;;13.95;;
28459;SDS011;32528;45.712;9.192;2023-02-11T06:23:22;23.95;;;12.63;;
28459;SDS011;32528;45.712;9.192;2023-02-11T06:25:23;32.35;;;13.60;;
28459;SDS011;32528;45.712;9.192;2023-02-11T06:27:24;33.83;;;14.40;;
28459;SDS011;32528;45.712;9.192;2023-02-11T06:29:24;23.23;;;13.07;;
28459;SDS011;32528;45.712;9.192;2023-02-11T06:31:25;28.27;;;13.90;;
28459;SDS011;32528;45.712;9.192;2023-02-11T06:33:27;26.40;;;14.82;;
28459;SDS011;32528;45.712;9.192;2023-02-11T06:35:27;23.88;;;12.85;;
28459;SDS011;32528;45.712;9.192;2023-02-11T06:37:29;31.00;;;14.40;;
28459;SDS011;32528;45.712;9.192;2023-02-11T06:39:29;33.47;;;17.13;;
28459;SDS011;32528;45.712;9.192;2023-02-11T06:41:30;40.42;;;15.40;;
28459;SDS011;32528;45.712;9.192;2023-02-11T06:43:31;32.42;;;15.45;;
28459;SDS011;32528;45.712;9.192;2023-02-11T06:45:32;40.53;;;17.52;;
28459;SDS011;32528;45.712;9.192;2023-02-11T06:47:33;32.10;;;14.73;;
28459;SDS011;32528;45.712;9.192;2023-02-11T06:49:34;35.83;;;18.75;;
28459;SDS011;32528;45.712;9.192;2023-02-11T06:51:34;32.53;;;16.95;;
28459;SDS011;32528;45.712;9.192;2023-02-11T06:53:36;48.60;;;17.30;;
28459;SDS011;32528;45.712;9.192;2023-02-11T06:55:39;29.08;;;14.23;;
28459;SDS011;32528;45.712;9.192;2023-02-11T06:57:39;25.05;;;14.52;;
28459;SDS011;32528;45.712;9.192;2023-02-11T06:59:41;49.50;;;19.70;;
28459;SDS011;32528;45.712;9.192;2023-02-11T07:01:41;38.22;;;17.98;;
28459;SDS011;32528;45.712;9.192;2023-02-11T07:03:43;42.88;;;14.57;;
28459;SDS011;32528;45.712;9.192;2023-02-11T07:05:45;41.83;;;16.10;;
28459;SDS011;32528;45.712;9.192;2023-02-11T07:07:46;35.75;;;12.88;;
28459;SDS011;32528;45.712;9.192;2023-02-11T07:09:46;25.92;;;13.55;;
28459;SDS011;32528;45.712;9.192;2023-02-11T07:11:47;24.08;;;13.82;;
28459;SDS011;32528;45.712;9.192;2023-02-11T07:13:48;32.63;;;17.95;;
28459;SDS011;32528;45.712;9.192;2023-02-11T07:15:50;31.83;;;14.80;;
28459;SDS011;32528;45.712;9.192;2023-02-11T07:17:51;27.33;;;13.63;;
28459;SDS011;32528;45.712;9.192;2023-02-11T07:19:52;25.73;;;14.57;;
28459;SDS011;32528;45.712;9.192;2023-02-11T07:21:53;23.95;;;13.63;;
28459;SDS011;32528;45.712;9.192;2023-02-11T07:23:54;32.95;;;13.02;;
28459;SDS011;32528;45.712;9.192;2023-02-11T07:25:55;23.95;;;13.88;;
28459;SDS011;32528;45.712;9.192;2023-02-11T07:27:55;31.13;;;13.07;;
28459;SDS011;32528;45.712;9.192;2023-02-11T07:29:56;31.27;;;14.55;;
28459;SDS011;32528;45.712;9.192;2023-02-11T07:31:57;23.35;;;12.88;;
28459;SDS011;32528;45.712;9.192;2023-02-11T07:33:59;26.27;;;12.98;;
28459;SDS011;32528;45.712;9.192;2023-02-11T07:36:00;26.92;;;14.30;;
28459;SDS011;32528;45.712;9.192;2023-02-11T07:38:01;29.43;;;15.40;;
28459;SDS011;32528;45.712;9.192;2023-02-11T07:40:02;36.83;;;15.68;;
28459;SDS011;32528;45.712;9.192;2023-02-11T07:42:03;29.45;;;14.60;;
28459;SDS011;32528;45.712;9.192;2023-02-11T07:44:05;22.33;;;13.07;;
28459;SDS011;32528;45.712;9.192;2023-02-11T07:46:07;58.42;;;15.80;;
28459;SDS011;32528;45.712;9.192;2023-02-11T07:48:11;23.25;;;13.57;;
28459;SDS011;32528;45.712;9.192;2023-02-11T07:50:11;26.65;;;15.43;;
28459;SDS011;32528;45.712;9.192;2023-02-11T07:52:12;27.35;;;13.48;;
28459;SDS011;32528;45.712;9.192;2023-02-11T07:54:13;24.55;;;15.10;;
28459;SDS011;32528;45.712;9.192;2023-02-11T07:56:14;31.92;;;17.60;;
28459;SDS011;32528;45.712;9.192;2023-02-11T07:58:17;29.63;;;15.48;;
28459;SDS011;32528;45.712;9.192;2023-02-11T08:00:18;34.35;;;17.00;;
28459;SDS011;32528;45.712;9.192;2023-02-11T08:02:18;29.05;;;15.10;;
28459;SDS011;32528;45.712;9.192;2023-02-11T08:04:19;29.17;;;14.05;;
28459;SDS011;32528;45.712;9.192;2023-02-11T08:06:22;36.55;;;17.02;;
28459;SDS011;32528;45.712;9.192;2023-02-11T08:08:25;26.25;;;17.40;;
28459;SDS011;32528;45.712;9.192;2023-02-11T08:10:26;24.42;;;15.07;;
28459;SDS011;32528;45.712;9.192;2023-02-11T08:12:27;27.90;;;15.70;;
28459;SDS011;32528;45.712;9.192;2023-02-11T08:14:29;32.42;;;15.77;;
28459;SDS011;32528;45.712;9.192;2023-02-11T08:16:32;24.15;;;14.05;;
28459;SDS011;32528;45.712;9.192;2023-02-11T08:18:34;29.00;;;16.90;;
28459;SDS011;32528;45.712;9.192;2023-02-11T08:20:35;34.58;;;17.83;;
28459;SDS011;32528;45.712;9.192;2023-02-11T08:22:37;44.58;;;18.05;;
28459;SDS011;32528;45.712;9.192;2023-02-11T08:24:38;47.10;;;17.52;;
28459;SDS011;32528;45.712;9.192;2023-02-11T08:26:40;55.05;;;17.02;;
28459;SDS011;32528;45.712;9.192;2023-02-11T08:28:41;40.75;;;17.27;;
28459;SDS011;32528;45.712;9.192;2023-02-11T08:30:43;88.68;;;17.90;;
28459;SDS011;32528;45.712;9.192;2023-02-11T08:32:44;50.65;;;18.60;;
28459;SDS011;32528;45.712;9.192;2023-02-11T08:34:45;37.53;;;17.70;;
28459;SDS011;32528;45.712;9.192;2023-02-11T08:36:52;34.97;;;17.23;;
28459;SDS011;32528;45.712;9.192;2023-02-11T08:38:54;36.40;;;15.27;;
28459;SDS011;32528;45.712;9.192;2023-02-11T08:40:55;37.80;;;20.13;;
28459;SDS011;32528;45.712;9.192;2023-02-11T08:42:59;32.13;;;18.45;;
28459;SDS011;32528;45.712;9.192;2023-02-11T08:45:00;40.63;;;19.70;;
28459;SDS011;32528;45.712;9.192;2023-02-11T08:47:00;33.80;;;19.05;;
28459;SDS011;32528;45.712;9.192;2023-02-11T08:49:01;37.72;;;18.30;;
28459;SDS011;32528;45.712;9.192;2023-02-11T08:51:06;47.75;;;22.88;;
28459;SDS011;32528;45.712;9.192;2023-02-11T08:53:09;49.03;;;19.75;;
28459;SDS011;32528;45.712;9.192;2023-02-11T08:55:11;37.97;;;20.70;;
28459;SDS011;32528;45.712;9.192;2023-02-11T08:57:12;35.17;;;18.48;;
28459;SDS011;32528;45.712;9.192;2023-02-11T08:59:13;44.92;;;18.13;;
28459;SDS011;32528;45.712;9.192;2023-02-11T09:01:15;52.63;;;19.48;;
28459;SDS011;32528;45.712;9.192;2023-02-11T09:03:18;39.75;;;20.35;;
28459;SDS011;32528;45.712;9.192;2023-02-11T09:05:19;33.05;;;18.73;;
28459;SDS011;32528;45.712;9.192;2023-02-11T09:07:20;39.03;;;21.15;;
28459;SDS011;32528;45.712;9.192;2023-02-11T09:09:21;32.88;;;18.65;;
28459;SDS011;32528;45.712;9.192;2023-02-11T09:11:26;50.45;;;16.67;;
28459;SDS011;32528;45.712;9.192;2023-02-11T09:13:29;44.88;;;19.02;;
28459;SDS011;32528;45.712;9.192;2023-02-11T09:15:30;41.15;;;18.08;;
28459;SDS011;32528;45.712;9.192;2023-02-11T09:17:32;40.33;;;18.58;;
28459;SDS011;32528;45.712;9.192;2023-02-11T09:19:32;39.88;;;18.00;;
28459;SDS011;32528;45.712;9.192;2023-02-11T09:21:34;37.58;;;20.88;;
28459;SDS011;32528;45.712;9.192;2023-02-11T09:23:35;42.85;;;19.23;;
28459;SDS011;32528;45.712;9.192;2023-02-11T09:25:38;31.65;;;17.23;;
28459;SDS011;32528;45.712;9.192;2023-02-11T09:27:40;31.42;;;17.00;;
28459;SDS011;32528;45.712;9.192;2023-02-11T09:29:40;24.88;;;15.15;;
28459;SDS011;32528;45.712;9.192;2023-02-11T09:31:41;34.40;;;15.20;;
28459;SDS011;32528;45.712;9.192;2023-02-11T09:33:43;32.92;;;15.63;;
28459;SDS011;32528;45.712;9.192;2023-02-11T09:35:46;28.63;;;16.33;;
28459;SDS011;32528;45.712;9.192;2023-02-11T09:37:47;27.55;;;14.82;;
28459;SDS011;32528;45.712;9.192;2023-02-11T09:39:49;30.70;;;15.48;;
28459;SDS011;32528;45.712;9.192;2023-02-11T09:44:03;28.20;;;15.43;;
28459;SDS011;32528;45.712;9.192;2023-02-11T09:46:07;25.25;;;14.75;;
28459;SDS011;32528;45.712;9.192;2023-02-11T09:50:17;28.88;;;16.98;;
28459;SDS011;32528;45.712;9.192;2023-02-11T09:52:57;34.22;;;15.80;;
28459;SDS011;32528;45.712;9.192;2023-02-11T09:54:56;25.20;;;13.77;;
28459;SDS011;32528;45.712;9.192;2023-02-11T09:56:58;33.47;;;14.55;;
28459;SDS011;32528;45.712;9.192;2023-02-11T09:58:59;28.00;;;15.90;;
28459;SDS011;32528;45.712;9.192;2023-02-11T10:07:50;25.17;;;12.98;;
28459;SDS011;32528;45.712;9.192;2023-02-11T10:10:06;30.95;;;13.85;;
28459;SDS011;32528;45.712;9.192;2023-02-11T10:16:49;29.83;;;13.30;;
28459;SDS011;32528;45.712;9.192;2023-02-11T10:21:18;21.75;;;12.73;;
28459;SDS011;32528;45.712;9.192;2023-02-11T10:23:29;23.63;;;12.60;;
28459;SDS011;32528;45.712;9.192;2023-02-11T10:25:38;28.20;;;13.70;;
28459;SDS011;32528;45.712;9.192;2023-02-11T10:27:41;24.85;;;13.35;;
28459;SDS011;32528;45.712;9.192;2023-02-11T10:29:44;29.83;;;13.57;;
28459;SDS011;32528;45.712;9.192;2023-02-11T10:31:49;31.00;;;15.55;;
28459;SDS011;32528;45.712;9.192;2023-02-11T10:37:56;31.60;;;13.73;;
28459;SDS011;32528;45.712;9.192;2023-02-11T10:39:58;30.27;;;16.58;;
28459;SDS011;32528;45.712;9.192;2023-02-11T10:42:00;36.28;;;15.18;;
28459;SDS011;32528;45.712;9.192;2023-02-11T10:44:05;45.08;;;15.57;;
28459;SDS011;32528;45.712;9.192;2023-02-11T10:46:06;28.33;;;14.38;;
28459;SDS011;32528;45.712;9.192;2023-02-11T10:53:24;32.33;;;15.35;;
28459;SDS011;32528;45.712;9.192;2023-02-11T10:55:25;26.25;;;12.80;;
28459;SDS011;32528;45.712;9.192;2023-02-11T10:57:30;42.53;;;14.88;;
28459;SDS011;32528;45.712;9.192;2023-02-11T10:59:33;32.30;;;15.25;;
28459;SDS011;32528;45.712;9.192;2023-02-11T11:04:36;38.80;;;17.65;;
28459;SDS011;32528;45.712;9.192;2023-02-11T11:06:41;34.50;;;15.57;;
28459;SDS011;32528;45.712;9.192;2023-02-11T11:08:45;28.65;;;15.13;;
28459;SDS011;32528;45.712;9.192;2023-02-11T11:11:01;37.00;;;15.50;;
28459;SDS011;32528;45.712;9.192;2023-02-11T11:13:04;37.70;;;18.08;;
28459;SDS011;32528;45.712;9.192;2023-02-11T11:15:24;38.60;;;18.35;;
28459;SDS011;32528;45.712;9.192;2023-02-11T11:17:27;45.90;;;20.23;;
28459;SDS011;32528;45.712;9.192;2023-02-11T11:19:28;43.75;;;19.80;;
28459;SDS011;32528;45.712;9.192;2023-02-11T11:23:46;43.92;;;22.42;;
28459;SDS011;32528;45.712;9.192;2023-02-11T11:28:04;42.05;;;21.38;;
28459;SDS011;32528;45.712;9.192;2023-02-11T11:30:05;33.05;;;17.38;;
28459;SDS011;32528;45.712;9.192;2023-02-11T11:34:31;39.28;;;20.95;;
28459;SDS011;32528;45.712;9.192;2023-02-11T11:36:35;36.45;;;18.70;;
28459;SDS011;32528;45.712;9.192;2023-02-11T11:38:42;38.25;;;19.30;;
28459;SDS011;32528;45.712;9.192;2023-02-11T11:40:47;40.38;;;19.10;;
28459;SDS011;32528;45.712;9.192;2023-02-11T11:43:19;37.22;;;19.50;;
28459;SDS011;32528;45.712;9.192;2023-02-11T11:45:24;36.53;;;17.45;;
28459;SDS011;32528;45.712;9.192;2023-02-11T11:54:31;37.42;;;20.48;;
28459;SDS011;32528;45.712;9.192;2023-02-11T11:56:35;42.25;;;19.35;;
28459;SDS011;32528;45.712;9.192;2023-02-11T11:58:45;39.47;;;20.02;;
28459;SDS011;32528;45.712;9.192;2023-02-11T12:05:42;34.97;;;20.55;;
28459;SDS011;32528;45.712;9.192;2023-02-11T12:08:16;38.20;;;19.13;;
28459;SDS011;32528;45.712;9.192;2023-02-11T12:10:43;36.22;;;18.77;;
28459;SDS011;32528;45.712;9.192;2023-02-11T12:42:49;34.15;;;17.77;;
28459;SDS011;32528;45.712;9.192;2023-02-11T12:56:28;30.55;;;15.10;;
28459;SDS011;32528;45.712;9.192;2023-02-11T12:58:37;28.80;;;14.90;;
28459;SDS011;32528;45.712;9.192;2023-02-11T13:00:43;32.03;;;16.45;;
28459;SDS011;32528;45.712;9.192;2023-02-11T13:02:58;29.13;;;15.32;;
28459;SDS011;32528;45.712;9.192;2023-02-11T13:07:41;26.60;;;15.00;;
28459;SDS011;32528;45.712;9.192;2023-02-11T13:09:48;32.35;;;15.25;;
28459;SDS011;32528;45.712;9.192;2023-02-11T13:11:56;28.20;;;13.60;;
28459;SDS011;32528;45.712;9.192;2023-02-11T13:26:06;30.08;;;13.63;;
28459;SDS011;32528;45.712;9.192;2023-02-11T13:28:24;25.65;;;13.23;;
28459;SDS011;32528;45.712;9.192;2023-02-11T13:30:41;29.65;;;14.57;;
28459;SDS011;32528;45.712;9.192;2023-02-11T13:34:54;27.35;;;15.52;;
28459;SDS011;32528;45.712;9.192;2023-02-11T13:36:56;30.27;;;16.02;;
28459;SDS011;32528;45.712;9.192;2023-02-11T13:38:58;31.33;;;16.65;;
28459;SDS011;32528;45.712;9.192;2023-02-11T13:43:21;24.73;;;15.23;;
28459;SDS011;32528;45.712;9.192;2023-02-11T13:45:32;29.50;;;15.20;;
28459;SDS011;32528;45.712;9.192;2023-02-11T13:47:39;33.03;;;17.35;;
28459;SDS011;32528;45.712;9.192;2023-02-11T13:49:40;38.83;;;18.00;;
28459;SDS011;32528;45.712;9.192;2023-02-11T13:51:51;28.60;;;17.13;;
28459;SDS011;32528;45.712;9.192;2023-02-11T13:53:54;35.05;;;17.77;;
28459;SDS011;32528;45.712;9.192;2023-02-11T13:56:08;37.05;;;17.13;;
28459;SDS011;32528;45.712;9.192;2023-02-11T13:58:15;40.42;;;17.25;;
28459;SDS011;32528;45.712;9.192;2023-02-11T14:02:34;28.20;;;16.40;;
28459;SDS011;32528;45.712;9.192;2023-02-11T14:07:27;41.40;;;16.60;;
28459;SDS011;32528;45.712;9.192;2023-02-11T14:09:48;32.03;;;17.00;;
28459;SDS011;32528;45.712;9.192;2023-02-11T14:11:52;35.28;;;18.80;;
28459;SDS011;32528;45.712;9.192;2023-02-11T14:14:01;34.67;;;17.58;;
28459;SDS011;32528;45.712;9.192;2023-02-11T14:16:19;27.38;;;15.30;;
28459;SDS011;32528;45.712;9.192;2023-02-11T14:20:44;25.33;;;13.97;;
28459;SDS011;32528;45.712;9.192;2023-02-11T14:22:47;34.17;;;16.05;;
28459;SDS011;32528;45.712;9.192;2023-02-11T14:25:02;29.38;;;16.65;;
28459;SDS011;32528;45.712;9.192;2023-02-11T14:27:22;28.25;;;15.07;;
28459;SDS011;32528;45.712;9.192;2023-02-11T14:29:37;29.33;;;15.32;;
28459;SDS011;32528;45.712;9.192;2023-02-11T14:34:02;37.47;;;16.42;;
28459;SDS011;32528;45.712;9.192;2023-02-11T14:36:33;32.50;;;16.70;;
28459;SDS011;32528;45.712;9.192;2023-02-11T14:41:21;28.02;;;15.35;;
28459;SDS011;32528;45.712;9.192;2023-02-11T14:43:35;27.90;;;14.10;;
28459;SDS011;32528;45.712;9.192;2023-02-11T14:45:40;27.42;;;14.35;;